createdAt,value
2023-02-23T00:01:13.199Z,95781.88
2023-02-23T00:03:40.677Z,95799.47
2023-02-23T00:06:08.245Z,95786.56
2023-02-23T00:08:36.435Z,95792.94
2023-02-23T00:11:03.778Z,95789.19
2023-02-23T00:13:30.206Z,95786.91
2023-02-23T00:15:56.614Z,95785.72
2023-02-23T00:18:23.054Z,95787.66
2023-02-23T00:20:58.611Z,95789.81
2023-02-23T00:23:27.571Z,95791.44
2023-02-23T00:25:54.005Z,95796.50
2023-02-23T00:28:20.419Z,95797.00
2023-02-23T00:30:46.925Z,95793.88
2023-02-23T00:33:13.459Z,95793.03
2023-02-23T00:35:40.134Z,95786.72
2023-02-23T00:38:06.602Z,95783.13
2023-02-23T00:40:33.033Z,95782.31
2023-02-23T00:42:59.448Z,95783.44
2023-02-23T00:45:26.203Z,95788.81
2023-02-23T00:47:52.634Z,95789.63
2023-02-23T00:50:19.364Z,95790.28
2023-02-23T00:52:45.888Z,95799.41
2023-02-23T00:55:13.254Z,95794.00
2023-02-23T00:57:40.026Z,95792.16
2023-02-23T01:00:16.733Z,95789.19
2023-02-23T01:02:43.211Z,95788.69
2023-02-23T01:05:11.151Z,95793.38
2023-02-23T01:07:38.130Z,95795.63
2023-02-23T01:10:19.024Z,95806.06
2023-02-23T01:12:49.752Z,95797.56
2023-02-23T01:15:17.007Z,95801.78
2023-02-23T01:17:43.483Z,95798.00
2023-02-23T01:20:19.628Z,95794.88
2023-02-23T01:22:47.698Z,95793.53
2023-02-23T01:25:14.935Z,95792.88
2023-02-23T01:27:41.425Z,95794.53
2023-02-23T01:30:09.299Z,95793.19
2023-02-23T01:32:36.815Z,95786.63
2023-02-23T01:35:04.832Z,95787.75
2023-02-23T01:37:32.051Z,95785.63
2023-02-23T01:39:58.561Z,95787.56
2023-02-23T01:42:25.640Z,95780.84
2023-02-23T01:44:52.102Z,95781.16
2023-02-23T01:47:20.421Z,95788.44
2023-02-23T01:49:46.986Z,95787.63
2023-02-23T01:52:14.825Z,95778.47
2023-02-23T01:54:51.267Z,95778.63
2023-02-23T01:57:20.547Z,95768.50
2023-02-23T01:59:49.146Z,95773.69
2023-02-23T02:02:21.239Z,95764.25
2023-02-23T02:04:52.094Z,95763.00
2023-02-23T02:07:21.663Z,95768.22
2023-02-23T02:10:07.904Z,95760.81
2023-02-23T02:12:34.428Z,95765.53
2023-02-23T02:15:02.299Z,95765.00
2023-02-23T02:17:48.325Z,95763.84
2023-02-23T02:20:26.556Z,95764.94
2023-02-23T02:23:11.406Z,95761.81
2023-02-23T02:25:44.135Z,95754.97
2023-02-23T02:28:13.787Z,95761.44
2023-02-23T02:30:59.414Z,95762.28
2023-02-23T02:33:32.071Z,95745.16
2023-02-23T02:36:07.258Z,95757.66
2023-02-23T02:38:40.949Z,95752.22
2023-02-23T02:41:13.737Z,95752.38
2023-02-23T02:43:42.878Z,95753.50
2023-02-23T02:46:22.404Z,95749.56
2023-02-23T02:49:06.659Z,95760.13
2023-02-23T02:51:35.192Z,95751.47
2023-02-23T02:54:21.065Z,95757.00
2023-02-23T02:56:48.919Z,95759.06
2023-02-23T02:59:36.066Z,95758.91
2023-02-23T03:02:21.503Z,95763.19
2023-02-23T03:05:06.435Z,95758.63
2023-02-23T03:08:00.717Z,95759.59
2023-02-23T03:11:06.039Z,95757.44
2023-02-23T03:13:54.189Z,95762.50
2023-02-23T03:16:58.091Z,95763.44
2023-02-23T03:19:49.116Z,95759.38
2023-02-23T03:22:34.000Z,95761.44
2023-02-23T03:25:28.136Z,95757.22
2023-02-23T03:28:20.143Z,95757.50
2023-02-23T03:31:20.784Z,95764.63
2023-02-23T03:34:14.011Z,95764.94
2023-02-23T03:37:02.398Z,95764.13
2023-02-23T03:39:51.741Z,95760.56
2023-02-23T03:42:39.588Z,95760.03
2023-02-23T03:45:27.075Z,95765.69
2023-02-23T03:48:14.182Z,95761.16
2023-02-23T03:51:04.733Z,95758.66
2023-02-23T03:53:57.871Z,95765.00
2023-02-23T03:56:45.261Z,95755.69
2023-02-23T03:59:30.761Z,95758.59
2023-02-23T04:02:16.859Z,95760.25
2023-02-23T04:05:03.993Z,95759.56
2023-02-23T04:07:49.443Z,95751.91
2023-02-23T04:10:34.752Z,95766.69
2023-02-23T04:13:14.634Z,95757.53
2023-02-23T04:15:47.476Z,95754.25
2023-02-23T04:18:15.700Z,95758.50
2023-02-23T04:20:42.493Z,95755.22
2023-02-23T04:23:08.983Z,95760.81
2023-02-23T04:25:35.549Z,95760.97
2023-02-23T04:28:01.963Z,95751.66
2023-02-23T04:30:28.638Z,95756.06
2023-02-23T04:32:55.753Z,95754.94
2023-02-23T04:35:22.276Z,95750.41
2023-02-23T04:37:48.873Z,95757.38
2023-02-23T04:40:15.435Z,95753.31
2023-02-23T04:42:41.954Z,95754.56
2023-02-23T04:45:08.784Z,95748.66
2023-02-23T04:47:35.190Z,95761.81
2023-02-23T04:50:01.633Z,95755.00
2023-02-23T04:52:28.049Z,95759.06
2023-02-23T04:54:54.518Z,95753.06
2023-02-23T04:57:20.932Z,95756.78
2023-02-23T04:59:47.378Z,95751.88
2023-02-23T05:02:13.815Z,95759.81
2023-02-23T05:04:40.280Z,95760.66
2023-02-23T05:07:06.740Z,95761.97
2023-02-23T05:09:33.442Z,95754.16
2023-02-23T05:11:59.862Z,95759.00
2023-02-23T05:14:27.115Z,95763.50
2023-02-23T05:16:53.604Z,95765.47
2023-02-23T05:19:20.032Z,95770.00
2023-02-23T05:21:46.522Z,95765.03
2023-02-23T05:24:13.287Z,95760.97
2023-02-23T05:26:39.949Z,95764.97
2023-02-23T05:29:06.698Z,95766.63
2023-02-23T05:31:33.244Z,95762.34
2023-02-23T05:33:59.706Z,95766.63
2023-02-23T05:36:26.312Z,95772.63
2023-02-23T05:38:52.833Z,95768.53
2023-02-23T05:41:20.898Z,95768.25
2023-02-23T05:43:48.156Z,95766.03
2023-02-23T05:46:19.995Z,95767.94
2023-02-23T05:48:46.506Z,95771.22
2023-02-23T05:51:14.066Z,95766.03
2023-02-23T05:53:41.233Z,95774.81
2023-02-23T05:56:09.141Z,95769.44
2023-02-23T05:58:35.572Z,95778.59
2023-02-23T06:01:02.084Z,95776.66
2023-02-23T06:03:28.505Z,95772.28
2023-02-23T06:05:56.136Z,95775.88
2023-02-23T06:08:22.947Z,95774.38
2023-02-23T06:10:49.350Z,95778.59
2023-02-23T06:13:16.367Z,95776.66
2023-02-23T06:15:43.490Z,95785.69
2023-02-23T06:18:10.288Z,95790.91
2023-02-23T06:20:39.460Z,95789.91
2023-02-23T06:23:07.589Z,95785.00
2023-02-23T06:25:34.344Z,95791.88
2023-02-23T06:28:00.776Z,95794.47
2023-02-23T06:30:27.237Z,95795.94
2023-02-23T06:32:53.647Z,95794.72
2023-02-23T06:35:20.134Z,95793.72
2023-02-23T06:37:46.548Z,95793.97
2023-02-23T06:40:13.107Z,95797.78
2023-02-23T06:42:39.534Z,95801.75
2023-02-23T06:45:06.204Z,95798.69
2023-02-23T06:47:33.605Z,95801.44
2023-02-23T06:50:00.098Z,95791.56
2023-02-23T06:52:26.560Z,95798.47
2023-02-23T06:54:52.990Z,95800.22
2023-02-23T06:57:19.532Z,95799.66
2023-02-23T06:59:45.977Z,95801.28
2023-02-23T07:02:13.411Z,95799.03
2023-02-23T07:04:40.024Z,95802.69
2023-02-23T07:07:06.519Z,95792.34
2023-02-23T07:09:32.948Z,95799.72
2023-02-23T07:11:59.827Z,95796.66
2023-02-23T07:14:27.340Z,95794.75
2023-02-23T07:16:54.018Z,95794.75
2023-02-23T07:19:20.508Z,95792.78
2023-02-23T07:21:47.005Z,95800.00
2023-02-23T07:24:15.630Z,95794.88
2023-02-23T07:26:45.827Z,95788.53
2023-02-23T07:29:15.112Z,95788.09
2023-02-23T07:31:42.162Z,95796.56
2023-02-23T07:34:09.319Z,95793.66
2023-02-23T07:36:35.965Z,95784.44
2023-02-23T07:39:03.208Z,95792.97
2023-02-23T07:41:29.634Z,95785.81
2023-02-23T07:43:56.077Z,95792.34
2023-02-23T07:46:22.534Z,95786.53
2023-02-23T07:48:48.986Z,95786.06
2023-02-23T07:51:17.048Z,95783.16
2023-02-23T07:53:43.954Z,95781.22
2023-02-23T07:56:11.172Z,95780.91
2023-02-23T07:58:38.483Z,95784.19
2023-02-23T08:01:05.059Z,95790.75
2023-02-23T08:03:31.675Z,95783.25
2023-02-23T08:05:58.461Z,95782.63
2023-02-23T08:08:25.448Z,95784.63
2023-02-23T08:10:58.852Z,95787.44
2023-02-23T08:13:25.278Z,95786.16
2023-02-23T08:15:51.705Z,95783.75
2023-02-23T08:18:18.256Z,95785.06
2023-02-23T08:20:44.705Z,95784.44
2023-02-23T08:23:11.644Z,95787.41
2023-02-23T08:25:38.265Z,95786.25
2023-02-23T08:28:06.882Z,95782.22
2023-02-23T08:30:33.922Z,95782.72
2023-02-23T08:33:01.491Z,95777.00
2023-02-23T08:35:29.896Z,95776.56
2023-02-23T08:37:57.716Z,95772.47
2023-02-23T08:40:24.208Z,95775.44
2023-02-23T08:42:52.132Z,95773.97
2023-02-23T08:45:19.223Z,95777.75
2023-02-23T08:47:45.859Z,95782.31
2023-02-23T08:50:13.092Z,95770.59
2023-02-23T08:52:40.258Z,95778.75
2023-02-23T08:55:07.483Z,95773.88
2023-02-23T08:57:34.440Z,95773.25
2023-02-23T09:00:00.851Z,95774.53
2023-02-23T09:02:28.217Z,95774.56
2023-02-23T09:04:54.863Z,95772.41
2023-02-23T09:07:25.756Z,95775.84
2023-02-23T09:09:55.759Z,95770.16
2023-02-23T09:12:22.267Z,95770.16
2023-02-23T09:14:48.897Z,95777.50
2023-02-23T09:17:17.725Z,95776.84
2023-02-23T09:19:44.548Z,95779.63
2023-02-23T09:22:11.047Z,95774.56
2023-02-23T09:24:38.512Z,95771.78
2023-02-23T09:27:07.319Z,95777.00
2023-02-23T09:29:34.339Z,95771.91
2023-02-23T09:32:00.895Z,95778.13
2023-02-23T09:34:30.745Z,95779.22
2023-02-23T09:36:57.244Z,95778.53
2023-02-23T09:39:36.902Z,95776.25
2023-02-23T09:42:04.577Z,95776.38
2023-02-23T09:44:49.781Z,95787.00
2023-02-23T09:47:19.504Z,95773.03
2023-02-23T09:49:47.943Z,95769.56
2023-02-23T09:52:29.166Z,95774.59
2023-02-23T09:54:55.794Z,95770.44
2023-02-23T09:57:26.795Z,95775.00
2023-02-23T09:59:53.272Z,95767.91
2023-02-23T10:02:37.956Z,95767.50
2023-02-23T10:05:07.772Z,95761.88
2023-02-23T10:07:49.965Z,95764.72
2023-02-23T10:10:22.534Z,95764.31
2023-02-23T10:13:02.382Z,95761.25
2023-02-23T10:15:43.446Z,95757.78
2023-02-23T10:18:15.968Z,95764.75
2023-02-23T10:21:01.254Z,95752.00
2023-02-23T10:23:31.250Z,95758.53
2023-02-23T10:26:02.028Z,95747.97
2023-02-23T10:28:30.904Z,95746.53
2023-02-23T10:30:57.720Z,95752.69
2023-02-23T10:33:36.252Z,95748.34
2023-02-23T10:36:16.545Z,95741.81
2023-02-23T10:38:42.989Z,95743.81
2023-02-23T10:41:09.991Z,95739.06
2023-02-23T10:43:36.601Z,95737.34
2023-02-23T10:46:04.502Z,95730.31
2023-02-23T10:48:39.871Z,95731.22
2023-02-23T10:51:07.527Z,95730.31
2023-02-23T10:53:35.908Z,95721.75
2023-02-23T10:56:02.567Z,95721.66
2023-02-23T10:58:29.220Z,95723.53
2023-02-23T11:01:00.231Z,95712.72
2023-02-23T11:03:29.686Z,95708.22
2023-02-23T11:05:56.496Z,95713.63
2023-02-23T11:08:22.969Z,95701.50
2023-02-23T11:11:00.832Z,95705.59
2023-02-23T11:13:28.521Z,95701.22
2023-02-23T11:16:14.746Z,95696.44
2023-02-23T11:18:42.911Z,95703.78
2023-02-23T11:21:11.165Z,95697.78
2023-02-23T11:23:39.140Z,95690.97
2023-02-23T11:26:24.453Z,95686.13
2023-02-23T11:28:52.747Z,95683.13
2023-02-23T11:31:20.931Z,95679.09
2023-02-23T11:33:48.390Z,95680.13
2023-02-23T11:36:25.684Z,95679.16
2023-02-23T11:39:04.029Z,95678.78
2023-02-23T11:41:32.862Z,95680.66
2023-02-23T11:43:59.893Z,95673.56
2023-02-23T11:46:28.090Z,95684.72
2023-02-23T11:49:01.856Z,95675.22
2023-02-23T11:51:28.770Z,95673.00
2023-02-23T11:53:55.819Z,95668.56
2023-02-23T11:56:24.038Z,95669.78
2023-02-23T11:58:53.789Z,95667.56
2023-02-23T12:01:34.438Z,95670.63
2023-02-23T12:04:00.936Z,95663.97
2023-02-23T12:06:41.093Z,95666.19
2023-02-23T12:09:12.989Z,95669.22
2023-02-23T12:11:45.318Z,95669.03
2023-02-23T12:14:18.826Z,95666.59
2023-02-23T12:16:48.255Z,95672.88
2023-02-23T12:19:23.215Z,95662.94
2023-02-23T12:21:53.761Z,95667.44
2023-02-23T12:24:28.326Z,95663.78
2023-02-23T12:27:01.001Z,95660.34
2023-02-23T12:29:45.878Z,95659.31
2023-02-23T12:32:14.658Z,95660.50
2023-02-23T12:34:47.953Z,95657.50
2023-02-23T12:37:20.215Z,95654.84
2023-02-23T12:39:50.518Z,95650.78
2023-02-23T12:42:16.941Z,95651.59
2023-02-23T12:44:53.579Z,95654.59
2023-02-23T12:47:22.850Z,95654.81
2023-02-23T12:50:00.364Z,95642.25
2023-02-23T12:52:30.381Z,95646.31
2023-02-23T12:54:57.417Z,95650.78
2023-02-23T12:57:27.851Z,95645.91
2023-02-23T13:00:20.368Z,95636.56
2023-02-23T13:02:49.517Z,95644.88
2023-02-23T13:05:15.960Z,95635.34
2023-02-23T13:08:12.468Z,95639.41
2023-02-23T13:10:51.082Z,95634.13
2023-02-23T13:13:17.531Z,95638.00
2023-02-23T13:15:49.690Z,95634.53
2023-02-23T13:18:28.737Z,95631.50
2023-02-23T13:20:58.688Z,95630.09
2023-02-23T13:23:31.215Z,95627.66
2023-02-23T13:26:16.334Z,95634.19
2023-02-23T13:28:49.073Z,95628.28
2023-02-23T13:31:24.654Z,95628.50
2023-02-23T13:33:51.935Z,95629.31
2023-02-23T13:36:19.629Z,95626.06
2023-02-23T13:38:53.186Z,95616.34
2023-02-23T13:41:38.102Z,95610.22
2023-02-23T13:44:19.754Z,95614.91
2023-02-23T13:46:54.426Z,95611.47
2023-02-23T13:49:34.488Z,95611.06
2023-02-23T13:52:09.176Z,95620.38
2023-02-23T13:54:36.618Z,95614.06
2023-02-23T13:57:05.640Z,95612.25
2023-02-23T13:59:38.367Z,95613.66
2023-02-23T14:02:37.166Z,95610.00
2023-02-23T14:05:21.230Z,95602.28
2023-02-23T14:07:49.006Z,95604.72
2023-02-23T14:10:23.283Z,95604.53
2023-02-23T14:13:08.218Z,95597.41
2023-02-23T14:15:34.577Z,95605.34
2023-02-23T14:18:02.477Z,95605.72
2023-02-23T14:20:38.088Z,95599.66
2023-02-23T14:23:13.747Z,95601.69
2023-02-23T14:25:40.976Z,95596.00
2023-02-23T14:28:27.009Z,95597.41
2023-02-23T14:31:12.410Z,95594.75
2023-02-23T14:33:41.626Z,95595.59
2023-02-23T14:36:23.459Z,95595.38
2023-02-23T14:38:55.929Z,95597.19
2023-02-23T14:41:24.146Z,95597.81
2023-02-23T14:44:27.154Z,95589.28
2023-02-23T14:46:57.802Z,95587.88
2023-02-23T14:49:26.329Z,95589.06
2023-02-23T14:51:54.329Z,95583.41
2023-02-23T14:54:27.043Z,95582.59
2023-02-23T14:56:56.684Z,95581.97
2023-02-23T14:59:24.634Z,95582.59
2023-02-23T15:01:51.486Z,95583.59
2023-02-23T15:04:20.458Z,95584.63
2023-02-23T15:06:50.033Z,95581.78
2023-02-23T15:09:19.565Z,95582.19
2023-02-23T15:11:48.639Z,95575.69
2023-02-23T15:14:26.811Z,95572.03
2023-02-23T15:16:56.060Z,95575.25
2023-02-23T15:19:33.399Z,95573.66
2023-02-23T15:22:01.856Z,95567.16
2023-02-23T15:24:31.117Z,95567.97
2023-02-23T15:26:58.046Z,95569.19
2023-02-23T15:29:33.766Z,95564.28
2023-02-23T15:32:18.949Z,95569.97
2023-02-23T15:34:45.701Z,95568.78
2023-02-23T15:37:35.367Z,95558.59
2023-02-23T15:40:04.583Z,95555.94
2023-02-23T15:42:36.452Z,95565.66
2023-02-23T15:45:04.525Z,95560.56
2023-02-23T15:47:36.716Z,95560.97
2023-02-23T15:50:08.840Z,95557.28
2023-02-23T15:52:39.671Z,95555.63
2023-02-23T15:55:07.968Z,95556.44
2023-02-23T15:57:43.792Z,95550.31
2023-02-23T16:00:19.666Z,95561.84
2023-02-23T16:02:48.428Z,95569.69
2023-02-23T16:05:20.312Z,95565.63
2023-02-23T16:07:46.788Z,95565.59
2023-02-23T16:10:16.227Z,95567.78
2023-02-23T16:12:44.599Z,95568.75
2023-02-23T16:15:21.699Z,95569.53
2023-02-23T16:17:52.988Z,95568.69
2023-02-23T16:20:26.339Z,95563.38
2023-02-23T16:22:54.827Z,95560.50
2023-02-23T16:25:24.548Z,95564.91
2023-02-23T16:27:55.421Z,95567.66
2023-02-23T16:30:29.659Z,95563.16
2023-02-23T16:33:05.824Z,95566.56
2023-02-23T16:35:41.019Z,95567.50
2023-02-23T16:38:15.186Z,95558.53
2023-02-23T16:40:42.276Z,95563.53
2023-02-23T16:43:09.664Z,95563.31
2023-02-23T16:45:37.310Z,95561.88
2023-02-23T16:48:04.317Z,95566.44
2023-02-23T16:50:30.976Z,95560.69
2023-02-23T16:52:57.401Z,95563.69
2023-02-23T16:55:28.299Z,95567.50
2023-02-23T16:57:56.442Z,95550.47
2023-02-23T17:00:24.867Z,95553.69
2023-02-23T17:02:51.857Z,95556.69
2023-02-23T17:05:22.650Z,95561.69
2023-02-23T17:07:49.248Z,95564.84
2023-02-23T17:10:24.975Z,95557.53
2023-02-23T17:12:52.906Z,95556.28
2023-02-23T17:15:19.936Z,95561.09
2023-02-23T17:17:46.389Z,95560.63
2023-02-23T17:20:17.179Z,95561.41
2023-02-23T17:22:44.293Z,95563.13
2023-02-23T17:25:11.131Z,95553.19
2023-02-23T17:27:37.570Z,95558.63
2023-02-23T17:30:05.276Z,95558.00
2023-02-23T17:32:32.353Z,95560.63
2023-02-23T17:34:58.849Z,95551.47
2023-02-23T17:37:25.279Z,95555.81
2023-02-23T17:39:51.959Z,95553.56
2023-02-23T17:42:18.743Z,95550.31
2023-02-23T17:44:45.200Z,95548.06
2023-02-23T17:47:11.627Z,95550.88
2023-02-23T17:49:38.105Z,95545.16
2023-02-23T17:52:04.590Z,95548.16
2023-02-23T17:54:31.003Z,95545.91
2023-02-23T17:56:58.070Z,95544.44
2023-02-23T17:59:24.746Z,95542.19
2023-02-23T18:01:51.524Z,95535.66
2023-02-23T18:04:18.037Z,95543.09
2023-02-23T18:06:44.839Z,95535.41
2023-02-23T18:09:14.507Z,95536.78
2023-02-23T18:11:41.056Z,95543.56
2023-02-23T18:14:09.553Z,95537.03
2023-02-23T18:16:36.081Z,95539.56
2023-02-23T18:19:02.590Z,95540.13
2023-02-23T18:21:29.399Z,95542.13
2023-02-23T18:23:56.049Z,95532.31
2023-02-23T18:26:23.915Z,95529.69
2023-02-23T18:28:51.274Z,95532.97
2023-02-23T18:31:20.031Z,95523.13
2023-02-23T18:33:47.898Z,95522.75
2023-02-23T18:36:19.525Z,95527.63
2023-02-23T18:38:45.945Z,95524.84
2023-02-23T18:41:12.512Z,95523.03
2023-02-23T18:43:39.149Z,95515.97
2023-02-23T18:46:06.707Z,95520.06
2023-02-23T18:48:33.152Z,95521.66
2023-02-23T18:50:59.639Z,95511.19
2023-02-23T18:53:26.068Z,95514.81
2023-02-23T18:55:52.635Z,95510.72
2023-02-23T18:58:19.834Z,95507.72
2023-02-23T19:00:46.469Z,95506.56
2023-02-23T19:03:13.221Z,95510.81
2023-02-23T19:05:52.855Z,95512.44
2023-02-23T19:08:20.297Z,95510.81
2023-02-23T19:10:47.031Z,95508.56
2023-02-23T19:13:13.530Z,95515.78
2023-02-23T19:15:40.045Z,95515.16
2023-02-23T19:18:06.712Z,95509.44
2023-02-23T19:20:35.725Z,95513.63
2023-02-23T19:23:03.284Z,95520.22
2023-02-23T19:25:29.775Z,95519.56
2023-02-23T19:27:56.729Z,95514.97
2023-02-23T19:30:23.258Z,95519.56
2023-02-23T19:32:50.148Z,95515.25
2023-02-23T19:35:16.997Z,95524.09
2023-02-23T19:37:50.638Z,95521.94
2023-02-23T19:40:20.761Z,95516.41
2023-02-23T19:42:49.440Z,95515.78
2023-02-23T19:45:16.549Z,95511.44
2023-02-23T19:47:43.269Z,95508.38
2023-02-23T19:50:11.491Z,95507.09
2023-02-23T19:52:38.853Z,95504.47
2023-02-23T19:55:06.438Z,95509.69
2023-02-23T19:57:32.914Z,95510.06
2023-02-23T19:59:59.444Z,95501.28
2023-02-23T20:02:26.116Z,95501.28
2023-02-23T20:04:52.751Z,95502.75
2023-02-23T20:07:19.497Z,95493.41
2023-02-23T20:09:45.954Z,95499.66
2023-02-23T20:12:12.575Z,95497.03
2023-02-23T20:14:40.615Z,95492.13
2023-02-23T20:17:07.166Z,95496.59
2023-02-23T20:22:56.065Z,95482.38
2023-02-23T20:25:23.148Z,95474.25
2023-02-23T20:27:53.154Z,95470.78
2023-02-23T20:30:20.328Z,95473.06
2023-02-23T20:32:47.277Z,95473.88
2023-02-23T20:35:15.025Z,95463.75
2023-02-23T20:37:41.862Z,95471.97
2023-02-23T20:40:15.920Z,95465.81
2023-02-23T20:42:45.144Z,95463.56
2023-02-23T20:45:14.248Z,95465.91
2023-02-23T20:47:45.892Z,95465.25
2023-02-23T20:50:13.267Z,95459.03
2023-02-23T20:52:40.755Z,95459.03
2023-02-23T20:55:07.784Z,95459.84
2023-02-23T20:57:34.582Z,95464.44
2023-02-23T21:00:01.663Z,95457.41
2023-02-23T21:02:28.558Z,95456.75
2023-02-23T21:04:54.985Z,95458.09
2023-02-23T21:07:26.291Z,95453.41
2023-02-23T21:09:59.332Z,95449.66
2023-02-23T21:12:25.985Z,95451.66
2023-02-23T21:14:52.416Z,95443.78
2023-02-23T21:17:18.866Z,95444.63
2023-02-23T21:19:45.360Z,95444.16
2023-02-23T21:22:16.270Z,95435.50
2023-02-23T21:24:44.283Z,95433.31
2023-02-23T21:27:13.175Z,95430.69
2023-02-23T21:29:40.194Z,95435.31
2023-02-23T21:32:07.685Z,95430.41
2023-02-23T21:34:34.604Z,95432.75
2023-02-23T21:37:01.125Z,95431.31
2023-02-23T21:39:28.292Z,95434.13
2023-02-23T21:41:55.268Z,95431.50
2023-02-23T21:44:21.745Z,95428.41
2023-02-23T21:46:48.770Z,95425.16
2023-02-23T21:49:16.033Z,95422.06
2023-02-23T21:51:42.444Z,95426.38
2023-02-23T21:54:08.909Z,95428.69
2023-02-23T21:56:36.857Z,95422.88
2023-02-23T21:59:04.435Z,95419.91
2023-02-23T22:01:34.611Z,95412.78
2023-02-23T22:04:01.545Z,95415.56
2023-02-23T22:06:28.878Z,95409.50
2023-02-23T22:08:55.663Z,95409.16
2023-02-23T22:11:24.857Z,95412.78
2023-02-23T22:13:58.842Z,95410.81
2023-02-23T22:16:26.996Z,95399.22
2023-02-23T22:18:54.767Z,95404.16
2023-02-23T22:21:22.810Z,95402.38
2023-02-23T22:23:50.261Z,95396.16
2023-02-23T22:26:16.948Z,95398.59
2023-02-23T22:28:43.625Z,95386.81
2023-02-23T22:31:11.613Z,95394.06
2023-02-23T22:33:40.472Z,95390.16
2023-02-23T22:36:08.125Z,95379.88
2023-02-23T22:38:35.048Z,95388.88
2023-02-23T22:41:01.696Z,95386.78
2023-02-23T22:43:28.153Z,95379.47
2023-02-23T22:45:55.443Z,95385.50
2023-02-23T22:48:23.496Z,95377.31
2023-02-23T22:50:50.565Z,95375.66
2023-02-23T22:53:17.624Z,95374.06
2023-02-23T22:55:48.187Z,95379.78
2023-02-23T22:58:15.261Z,95370.16
2023-02-23T23:00:42.057Z,95369.50
2023-02-23T23:03:09.435Z,95368.25
2023-02-23T23:05:37.337Z,95358.56
2023-02-23T23:08:03.823Z,95356.59
2023-02-23T23:10:30.291Z,95352.53
2023-02-23T23:12:59.219Z,95356.13
2023-02-23T23:15:25.814Z,95354.53
2023-02-23T23:17:52.268Z,95354.81
2023-02-23T23:20:23.031Z,95341.72
2023-02-23T23:22:49.970Z,95344.69
2023-02-23T23:25:22.684Z,95337.53
2023-02-23T23:27:53.881Z,95337.91
2023-02-23T23:30:29.118Z,95331.03
2023-02-23T23:32:56.205Z,95334.81
2023-02-23T23:35:23.281Z,95323.88
2023-02-23T23:37:52.924Z,95330.28
2023-02-23T23:40:24.302Z,95328.81
2023-02-23T23:42:50.877Z,95325.22
2023-02-23T23:45:18.162Z,95327.66
2023-02-23T23:47:45.237Z,95312.78
2023-02-23T23:50:15.465Z,95317.84
2023-02-23T23:52:45.661Z,95315.06
2023-02-23T23:55:12.694Z,95316.03
2023-02-23T23:57:39.581Z,95308.84
